createdAt,value
2019-04-16T00:02:32.976Z,99.90
2019-04-16T00:05:41.511Z,99.90
2019-04-16T00:08:54.120Z,99.90
2019-04-16T00:12:22.827Z,99.90
2019-04-16T00:15:26.136Z,99.90
2019-04-16T00:18:29.530Z,99.90
2019-04-16T00:21:55.306Z,99.90
2019-04-16T00:24:58.761Z,99.90
2019-04-16T00:28:02.070Z,99.90
2019-04-16T00:31:05.764Z,99.90
2019-04-16T00:34:13.718Z,99.90
2019-04-16T00:37:14.544Z,99.90
2019-04-16T00:40:18.011Z,99.90
2019-04-16T00:43:21.410Z,99.90
2019-04-16T00:46:24.709Z,99.90
2019-04-16T00:49:28.141Z,99.90
2019-04-16T00:52:31.524Z,99.90
2019-04-16T00:55:34.809Z,99.90
2019-04-16T00:58:38.312Z,99.90
2019-04-16T01:01:42.851Z,99.90
2019-04-16T01:04:48.206Z,99.90
2019-04-16T01:07:51.579Z,99.90
2019-04-16T01:10:54.992Z,99.90
2019-04-16T01:13:58.274Z,99.90
2019-04-16T01:17:04.852Z,99.90
2019-04-16T01:20:11.642Z,99.90
2019-04-16T01:23:17.600Z,99.90
2019-04-16T01:26:18.329Z,99.90
2019-04-16T01:29:21.827Z,99.90
2019-04-16T01:32:35.778Z,99.90
2019-04-16T01:35:58.548Z,99.90
2019-04-16T01:39:16.097Z,99.90
2019-04-16T01:42:11.649Z,99.90
2019-04-16T01:45:15.113Z,99.90
2019-04-16T01:48:18.685Z,99.90
2019-04-16T01:51:21.919Z,99.90
2019-04-16T01:54:25.291Z,99.90
2019-04-16T01:57:30.712Z,99.90
2019-04-16T02:00:36.480Z,99.90
2019-04-16T02:03:39.381Z,99.90
2019-04-16T02:06:42.832Z,99.90
2019-04-16T02:09:46.165Z,99.90
2019-04-16T02:12:49.727Z,99.90
2019-04-16T02:15:53.528Z,99.90
2019-04-16T02:19:00.828Z,99.90
2019-04-16T02:22:02.778Z,99.90
2019-04-16T02:25:06.354Z,99.90
2019-04-16T02:28:09.795Z,99.90
2019-04-16T02:31:15.678Z,99.90
2019-04-16T02:34:18.290Z,99.90
2019-04-16T02:37:21.729Z,99.90
2019-04-16T02:40:25.086Z,99.90
2019-04-16T02:43:28.627Z,99.90
2019-04-16T02:46:32.746Z,99.90
2019-04-16T02:49:36.106Z,99.90
2019-04-16T02:52:59.467Z,99.90
2019-04-16T02:56:18.786Z,99.90
2019-04-16T02:59:29.392Z,99.90
2019-04-16T03:02:54.884Z,99.90
2019-04-16T03:06:00.654Z,99.90
2019-04-16T03:09:08.548Z,99.90
2019-04-16T03:12:10.276Z,99.90
2019-04-16T03:15:16.259Z,99.90
2019-04-16T03:18:22.043Z,99.90
2019-04-16T03:21:27.397Z,99.90
2019-04-16T03:24:30.601Z,99.90
2019-04-16T03:27:33.724Z,99.90
2019-04-16T03:30:42.082Z,99.90
2019-04-16T03:33:48.391Z,99.90
2019-04-16T03:36:46.962Z,99.90
2019-04-16T03:39:50.059Z,99.90
2019-04-16T03:42:53.219Z,99.90
2019-04-16T03:45:56.339Z,99.90
2019-04-16T03:48:59.744Z,99.90
2019-04-16T03:52:04.921Z,99.90
2019-04-16T03:55:07.971Z,99.90
2019-04-16T03:58:11.126Z,99.90
2019-04-16T04:01:15.448Z,99.90
2019-04-16T04:04:19.101Z,99.90
2019-04-16T04:07:22.305Z,99.90
2019-04-16T04:10:31.013Z,99.90
2019-04-16T04:13:31.377Z,99.90
2019-04-16T04:16:34.644Z,99.90
2019-04-16T04:19:37.756Z,99.90
2019-04-16T04:22:40.923Z,99.90
2019-04-16T04:25:44.024Z,99.90
2019-04-16T04:28:48.670Z,99.90
2019-04-16T04:31:52.163Z,99.90
2019-04-16T04:34:55.273Z,99.90
2019-04-16T04:38:00.778Z,99.90
2019-04-16T04:41:03.585Z,99.90
2019-04-16T04:44:06.776Z,99.90
2019-04-16T04:47:09.972Z,99.90
2019-04-16T04:50:13.165Z,99.90
2019-04-16T04:53:19.216Z,99.90
2019-04-16T04:56:21.412Z,99.90
2019-04-16T04:59:24.527Z,99.90
2019-04-16T05:02:28.740Z,99.90
2019-04-16T05:05:42.479Z,99.90
2019-04-16T05:08:45.543Z,99.90
2019-04-16T05:11:49.596Z,99.90
2019-04-16T05:14:57.031Z,99.90
2019-04-16T05:17:59.632Z,99.90
2019-04-16T05:21:02.941Z,99.90
2019-04-16T05:24:06.029Z,99.90
2019-04-16T05:27:09.427Z,99.90
2019-04-16T05:30:17.450Z,99.90
2019-04-16T05:33:17.863Z,99.90
2019-04-16T05:36:24.184Z,99.90
2019-04-16T05:39:28.572Z,99.90
2019-04-16T05:42:31.791Z,99.90
2019-04-16T05:45:37.644Z,99.90
2019-04-16T05:48:39.790Z,99.90
2019-04-16T05:51:43.119Z,99.90
2019-04-16T05:55:05.659Z,99.90
2019-04-16T05:58:09.948Z,99.90
2019-04-16T06:01:42.466Z,99.90
2019-04-16T06:04:47.288Z,99.90
2019-04-16T06:07:50.567Z,99.90
2019-04-16T06:10:53.705Z,99.90
2019-04-16T06:14:04.724Z,99.90
2019-04-16T06:17:18.304Z,99.90
2019-04-16T06:20:38.346Z,99.90
2019-04-16T06:24:03.082Z,99.90
2019-04-16T06:27:15.000Z,99.90
2019-04-16T06:30:37.645Z,99.90
2019-04-16T06:34:03.359Z,99.90
2019-04-16T06:37:21.792Z,99.90
2019-04-16T06:40:41.929Z,99.90
2019-04-16T06:43:48.852Z,99.90
2019-04-16T06:47:20.295Z,99.90
2019-04-16T06:50:40.980Z,99.90
2019-04-16T06:54:02.123Z,99.90
2019-04-16T06:57:43.831Z,99.90
2019-04-16T07:01:07.135Z,99.90
2019-04-16T07:04:30.832Z,99.90
2019-04-16T07:07:59.541Z,99.90
2019-04-16T07:11:03.297Z,99.90
2019-04-16T07:14:06.388Z,99.90
2019-04-16T07:17:09.716Z,99.90
2019-04-16T07:20:14.237Z,99.90
2019-04-16T07:23:17.764Z,99.90
2019-04-16T07:26:21.322Z,99.90
2019-04-16T07:29:32.773Z,99.90
2019-04-16T07:33:00.671Z,99.90
2019-04-16T07:36:28.377Z,99.90
2019-04-16T07:39:40.549Z,99.90
2019-04-16T07:43:01.773Z,99.90
2019-04-16T07:46:23.313Z,99.90
2019-04-16T07:49:59.855Z,99.90
2019-04-16T07:53:34.432Z,99.90
2019-04-16T07:56:39.262Z,99.90
2019-04-16T07:59:43.560Z,99.90
2019-04-16T08:02:46.705Z,99.90
2019-04-16T08:05:49.939Z,99.90
2019-04-16T08:08:57.137Z,99.90
2019-04-16T08:11:59.125Z,99.90
2019-04-16T08:15:13.282Z,99.90
2019-04-16T08:18:07.573Z,99.90
2019-04-16T08:21:12.404Z,99.60
2019-04-16T08:24:24.404Z,97.50
2019-04-16T08:27:25.321Z,97.30
2019-04-16T08:30:34.097Z,96.90
2019-04-16T08:33:33.787Z,97.10
2019-04-16T08:36:36.963Z,95.50
2019-04-16T08:39:40.573Z,93.90
2019-04-16T08:42:45.145Z,92.10
2019-04-16T08:45:48.380Z,91.40
2019-04-16T08:48:54.263Z,91.10
2019-04-16T08:51:56.420Z,91.00
2019-04-16T08:54:59.622Z,90.00
2019-04-16T08:58:06.069Z,88.10
2019-04-16T09:01:09.244Z,87.70
2019-04-16T09:04:12.513Z,82.30
2019-04-16T09:07:33.732Z,80.20
2019-04-16T09:10:37.080Z,78.80
2019-04-16T09:13:48.188Z,80.10
2019-04-16T09:16:59.432Z,79.40
2019-04-16T09:20:13.751Z,78.00
2019-04-16T09:23:17.114Z,75.60
2019-04-16T09:26:34.082Z,74.20
2019-04-16T09:29:56.103Z,73.10
2019-04-16T09:33:22.600Z,75.60
2019-04-16T09:36:43.648Z,70.80
2019-04-16T09:39:59.331Z,70.60
2019-04-16T09:43:16.085Z,69.70
2019-04-16T09:46:11.121Z,69.50
2019-04-16T09:49:14.745Z,69.20
2019-04-16T09:52:19.751Z,68.30
2019-04-16T09:55:23.096Z,67.60
2019-04-16T09:58:26.486Z,67.00
2019-04-16T10:01:38.536Z,66.10
2019-04-16T10:04:41.759Z,67.30
2019-04-16T10:07:46.032Z,65.20
2019-04-16T10:10:49.296Z,64.50
2019-04-16T10:13:52.492Z,63.60
2019-04-16T10:16:55.793Z,63.90
2019-04-16T10:19:59.089Z,62.70
2019-04-16T10:23:05.657Z,61.00
2019-04-16T10:26:10.190Z,58.40
2019-04-16T10:29:15.212Z,59.60
2019-04-16T10:32:18.746Z,59.00
2019-04-16T10:35:22.235Z,58.10
2019-04-16T10:38:56.688Z,58.90
2019-04-16T10:42:18.004Z,58.60
2019-04-16T10:45:47.010Z,58.20
2019-04-16T10:48:59.404Z,57.30
2019-04-16T10:52:30.834Z,58.00
2019-04-16T10:55:51.992Z,57.00
2019-04-16T10:59:32.868Z,58.40
2019-04-16T11:02:48.384Z,59.00
2019-04-16T11:06:20.010Z,57.50
2019-04-16T11:09:23.252Z,58.20
2019-04-16T11:12:26.443Z,58.70
2019-04-16T11:15:29.749Z,57.00
2019-04-16T11:18:32.918Z,58.40
2019-04-16T11:21:36.177Z,57.90
2019-04-16T11:24:39.459Z,58.20
2019-04-16T11:27:42.741Z,57.60
2019-04-16T11:30:48.855Z,57.30
2019-04-16T11:33:52.300Z,57.20
2019-04-16T11:36:58.290Z,57.00
2019-04-16T11:40:00.531Z,55.80
2019-04-16T11:43:03.832Z,54.40
2019-04-16T11:46:07.208Z,56.00
2019-04-16T11:49:10.461Z,59.10
2019-04-16T11:52:13.562Z,56.30
2019-04-16T11:55:16.793Z,55.90
2019-04-16T11:58:45.404Z,56.20
2019-04-16T12:02:14.991Z,57.70
2019-04-16T12:05:37.596Z,55.50
2019-04-16T12:09:08.988Z,54.90
2019-04-16T12:12:21.546Z,54.90
2019-04-16T12:15:29.168Z,55.80
2019-04-16T12:18:51.823Z,53.00
2019-04-16T12:22:29.635Z,53.10
2019-04-16T12:25:39.370Z,52.40
2019-04-16T12:29:02.174Z,51.70
2019-04-16T12:32:26.843Z,51.70
2019-04-16T12:35:40.621Z,51.00
2019-04-16T12:38:58.377Z,51.80
2019-04-16T12:42:08.390Z,50.20
2019-04-16T12:45:37.204Z,50.00
2019-04-16T12:48:58.519Z,50.20
2019-04-16T12:52:22.415Z,50.10
2019-04-16T12:55:45.538Z,49.70
2019-04-16T12:59:22.090Z,49.90
2019-04-16T13:02:53.103Z,48.80
2019-04-16T13:06:26.995Z,48.70
2019-04-16T13:09:47.433Z,48.00
2019-04-16T13:13:02.247Z,48.40
2019-04-16T13:16:18.120Z,48.30
2019-04-16T13:19:46.537Z,49.00
2019-04-16T13:22:52.740Z,48.00
2019-04-16T13:26:05.443Z,46.80
2019-04-16T13:29:14.984Z,47.40
2019-04-16T13:32:17.877Z,48.60
2019-04-16T13:35:21.032Z,47.90
2019-04-16T13:38:25.289Z,49.70
2019-04-16T13:41:28.640Z,49.00
2019-04-16T13:44:37.652Z,48.80
2019-04-16T13:47:47.376Z,49.40
2019-04-16T13:50:53.999Z,47.20
2019-04-16T13:54:22.391Z,47.70
2019-04-16T13:57:26.043Z,47.20
2019-04-16T14:00:37.979Z,47.90
2019-04-16T14:03:41.343Z,47.50
2019-04-16T14:06:46.233Z,48.30
2019-04-16T14:09:49.518Z,47.70
2019-04-16T14:12:52.675Z,48.60
2019-04-16T14:15:56.001Z,47.10
2019-04-16T14:19:02.059Z,47.30
2019-04-16T14:22:04.208Z,47.50
2019-04-16T14:25:07.844Z,47.00
2019-04-16T14:28:11.003Z,48.20
2019-04-16T14:31:16.913Z,48.10
2019-04-16T14:34:29.923Z,48.10
2019-04-16T14:37:33.189Z,46.50
2019-04-16T14:40:39.724Z,47.60
2019-04-16T14:43:44.167Z,48.40
2019-04-16T14:46:47.490Z,47.80
2019-04-16T14:49:51.110Z,48.30
2019-04-16T14:52:54.598Z,48.00
2019-04-16T14:56:05.127Z,48.00
2019-04-16T14:59:35.171Z,48.40
2019-04-16T15:02:52.299Z,48.00
2019-04-16T15:06:09.459Z,47.90
2019-04-16T15:09:43.852Z,47.60
2019-04-16T15:12:54.528Z,48.30
2019-04-16T15:16:22.163Z,48.00
2019-04-16T15:19:30.713Z,48.30
2019-04-16T15:22:47.631Z,48.30
2019-04-16T15:26:08.063Z,48.10
2019-04-16T15:29:31.401Z,46.10
2019-04-16T15:32:52.371Z,47.50
2019-04-16T15:35:59.175Z,47.50
2019-04-16T15:39:18.491Z,48.40
2019-04-16T15:42:38.787Z,48.50
2019-04-16T15:45:54.649Z,46.10
2019-04-16T15:49:08.332Z,46.30
2019-04-16T15:52:46.681Z,47.40
2019-04-16T15:56:09.800Z,48.50
2019-04-16T15:59:38.400Z,49.90
2019-04-16T16:02:59.661Z,49.80
2019-04-16T16:06:16.937Z,50.30
2019-04-16T16:09:25.251Z,50.00
2019-04-16T16:12:30.148Z,50.00
2019-04-16T16:15:33.491Z,50.50
2019-04-16T16:18:38.809Z,51.00
2019-04-16T16:21:42.207Z,51.30
2019-04-16T16:24:45.427Z,51.90
2019-04-16T16:27:48.488Z,51.70
2019-04-16T16:30:51.616Z,52.30
2019-04-16T16:33:54.804Z,52.00
2019-04-16T16:36:57.967Z,51.00
2019-04-16T16:40:01.195Z,51.70
2019-04-16T16:43:07.905Z,51.90
2019-04-16T16:46:22.096Z,52.70
2019-04-16T16:49:25.328Z,52.60
2019-04-16T16:53:06.155Z,53.60
2019-04-16T16:56:24.331Z,53.90
2019-04-16T16:59:40.751Z,54.60
2019-04-16T17:02:49.712Z,54.60
2019-04-16T17:05:53.037Z,55.20
2019-04-16T17:08:57.330Z,56.00
2019-04-16T17:12:00.528Z,56.40
2019-04-16T17:15:07.888Z,57.20
2019-04-16T17:18:09.166Z,57.50
2019-04-16T17:21:12.712Z,58.40
2019-04-16T17:24:15.869Z,58.90
2019-04-16T17:27:20.185Z,59.20
2019-04-16T17:30:23.413Z,59.50
2019-04-16T17:33:26.472Z,60.20
2019-04-16T17:36:29.672Z,60.10
2019-04-16T17:39:48.403Z,60.60
2019-04-16T17:42:53.764Z,61.00
2019-04-16T17:46:38.420Z,61.40
2019-04-16T17:49:50.233Z,61.90
2019-04-16T17:53:27.657Z,62.90
2019-04-16T17:56:46.836Z,64.20
2019-04-16T18:00:08.023Z,65.10
2019-04-16T18:03:34.368Z,65.60
2019-04-16T18:06:56.344Z,66.00
2019-04-16T18:10:10.036Z,66.80
2019-04-16T18:13:31.913Z,67.70
2019-04-16T18:16:44.329Z,68.30
2019-04-16T18:20:15.840Z,68.90
2019-04-16T18:23:27.729Z,69.30
2019-04-16T18:26:40.496Z,70.30
2019-04-16T18:29:55.528Z,71.10
2019-04-16T18:33:07.546Z,71.80
2019-04-16T18:36:20.432Z,72.80
2019-04-16T18:39:41.248Z,73.50
2019-04-16T18:42:57.152Z,73.90
2019-04-16T18:46:35.005Z,74.60
2019-04-16T18:49:38.847Z,75.10
2019-04-16T18:52:42.424Z,75.60
2019-04-16T18:55:45.679Z,76.70
2019-04-16T18:58:48.912Z,76.70
2019-04-16T19:01:56.160Z,77.30
2019-04-16T19:04:59.360Z,77.90
2019-04-16T19:08:02.705Z,79.70
2019-04-16T19:11:07.617Z,80.60
2019-04-16T19:14:13.199Z,81.20
2019-04-16T19:17:17.045Z,82.20
2019-04-16T19:20:21.480Z,83.10
2019-04-16T19:23:24.600Z,84.20
2019-04-16T19:26:30.204Z,84.70
2019-04-16T19:29:32.810Z,86.10
2019-04-16T19:32:35.999Z,87.20
2019-04-16T19:35:39.299Z,88.90
2019-04-16T19:38:42.429Z,90.40
2019-04-16T19:41:45.692Z,91.90
2019-04-16T19:44:49.204Z,93.10
2019-04-16T19:47:52.801Z,94.40
2019-04-16T19:50:59.705Z,96.20
2019-04-16T19:54:03.633Z,97.30
2019-04-16T19:57:07.706Z,98.10
2019-04-16T20:00:12.479Z,99.90
2019-04-16T20:07:50.343Z,99.90
2019-04-16T20:10:54.536Z,99.90
2019-04-16T20:14:07.216Z,99.90
2019-04-16T20:17:11.044Z,99.90
2019-04-16T20:20:14.779Z,99.90
2019-04-16T20:23:20.846Z,99.90
2019-04-16T20:26:25.346Z,99.90
2019-04-16T20:29:29.543Z,99.90
2019-04-16T20:32:34.207Z,99.90
2019-04-16T20:35:38.827Z,99.90
2019-04-16T20:38:43.084Z,99.90
2019-04-16T20:41:52.849Z,99.90
2019-04-16T20:44:54.617Z,99.90
2019-04-16T20:47:59.099Z,99.90
2019-04-16T20:51:03.277Z,99.90
2019-04-16T20:54:12.171Z,99.90
2019-04-16T20:57:13.196Z,99.90
2019-04-16T21:00:22.300Z,99.90
2019-04-16T21:03:26.487Z,99.90
2019-04-16T21:06:30.245Z,99.90
2019-04-16T21:09:34.347Z,99.90
2019-04-16T21:12:38.743Z,99.90
2019-04-16T21:15:42.673Z,99.90
2019-04-16T21:18:46.886Z,99.90
2019-04-16T21:21:55.104Z,99.90
2019-04-16T21:25:00.012Z,99.90
2019-04-16T21:28:14.820Z,99.90
2019-04-16T21:31:24.490Z,99.90
2019-04-16T21:34:43.891Z,99.90
2019-04-16T21:38:04.292Z,99.90
2019-04-16T21:41:07.604Z,99.90
2019-04-16T21:44:12.957Z,99.90
2019-04-16T21:52:09.259Z,99.90
2019-04-16T21:55:12.874Z,99.90
2019-04-16T21:58:17.746Z,99.90
2019-04-16T22:01:32.728Z,99.90
2019-04-16T22:08:14.608Z,99.90
2019-04-16T22:11:17.843Z,99.90
2019-04-16T22:14:22.253Z,99.90
2019-04-16T22:17:26.386Z,99.90
2019-04-16T22:20:31.740Z,99.90
2019-04-16T22:23:34.657Z,99.90
2019-04-16T22:26:37.920Z,99.90
2019-04-16T22:29:41.049Z,99.90
2019-04-16T22:32:44.208Z,99.90
2019-04-16T22:35:48.615Z,99.90
2019-04-16T22:38:58.109Z,99.90
2019-04-16T22:42:07.062Z,99.90
2019-04-16T22:45:32.448Z,99.90
2019-04-16T22:48:35.827Z,99.90
2019-04-16T22:51:39.779Z,99.90
2019-04-16T22:54:44.100Z,99.90
2019-04-16T22:57:47.348Z,99.90
2019-04-16T23:00:52.816Z,99.90
2019-04-16T23:03:56.072Z,99.90
2019-04-16T23:07:00.593Z,99.90
2019-04-16T23:10:04.227Z,99.90
2019-04-16T23:17:23.180Z,99.90
2019-04-16T23:20:29.676Z,99.90
2019-04-16T23:23:31.423Z,99.90
2019-04-16T23:26:34.692Z,99.90
2019-04-16T23:29:37.812Z,99.90
2019-04-16T23:32:41.257Z,99.90
2019-04-16T23:35:44.647Z,99.90
2019-04-16T23:38:47.911Z,99.90
2019-04-16T23:41:51.043Z,99.90
2019-04-16T23:45:16.608Z,99.90
2019-04-16T23:48:47.801Z,99.90
2019-04-16T23:52:03.071Z,99.90
2019-04-16T23:55:16.319Z,99.90
2019-04-16T23:58:28.142Z,99.90
